createdAt,value
2023-04-09T00:00:45.389Z,5.469666
2023-04-09T00:01:55.127Z,5.459595
2023-04-09T00:03:04.793Z,5.459595
2023-04-09T00:04:11.449Z,5.459595
2023-04-09T00:05:21.112Z,5.469666
2023-04-09T00:06:29.778Z,5.53009
2023-04-09T00:07:39.434Z,5.53009
2023-04-09T00:08:49.203Z,5.540161
2023-04-09T00:09:56.775Z,5.570374
2023-04-09T00:11:06.502Z,5.570374
2023-04-09T00:12:16.173Z,5.590515
2023-04-09T00:13:38.353Z,5.570374
2023-04-09T00:14:36.545Z,5.620728
2023-04-09T00:15:44.201Z,5.640869
2023-04-09T00:16:53.861Z,5.681152
2023-04-09T00:18:03.669Z,5.681152
2023-04-09T00:19:13.350Z,5.691223
2023-04-09T00:20:22.973Z,5.731506
2023-04-09T00:21:31.654Z,5.761719
2023-04-09T00:22:39.318Z,5.751648
2023-04-09T00:23:49.029Z,5.761719
2023-04-09T00:24:57.699Z,5.761719
2023-04-09T00:26:07.359Z,5.721436
2023-04-09T00:27:17.053Z,5.711365
2023-04-09T00:28:25.690Z,5.681152
2023-04-09T00:29:35.375Z,5.65094
2023-04-09T00:30:44.044Z,5.65094
2023-04-09T00:31:51.754Z,5.661011
2023-04-09T00:33:01.409Z,5.681152
2023-04-09T00:34:10.047Z,5.691223
2023-04-09T00:35:18.717Z,5.731506
2023-04-09T00:36:28.373Z,5.711365
2023-04-09T00:37:36.035Z,5.721436
2023-04-09T00:38:45.766Z,5.721436
2023-04-09T00:39:54.435Z,5.721436
2023-04-09T00:41:03.096Z,5.721436
2023-04-09T00:42:12.762Z,5.751648
2023-04-09T00:43:20.462Z,5.731506
2023-04-09T00:44:29.128Z,5.761719
2023-04-09T00:45:38.889Z,5.791931
2023-04-09T00:46:46.544Z,5.791931
2023-04-09T00:47:56.249Z,5.791931
2023-04-09T00:49:04.930Z,5.791931
2023-04-09T00:50:13.632Z,5.822144
2023-04-09T00:51:23.375Z,5.822144
2023-04-09T00:52:31.047Z,5.822144
2023-04-09T00:53:40.703Z,5.832214
2023-04-09T00:54:50.400Z,5.862427
2023-04-09T00:55:58.079Z,5.862427
2023-04-09T00:57:07.735Z,5.842285
2023-04-09T00:58:16.414Z,5.862427
2023-04-09T00:59:24.126Z,5.862427
2023-04-09T01:00:33.789Z,5.892639
2023-04-09T01:01:42.456Z,5.912781
2023-04-09T01:02:51.157Z,5.912781
2023-04-09T01:04:00.870Z,5.932922
2023-04-09T01:05:09.523Z,5.973206
2023-04-09T01:06:19.221Z,5.983276
2023-04-09T01:07:27.879Z,5.993347
2023-04-09T01:08:37.545Z,5.973206
2023-04-09T01:09:47.246Z,5.993347
2023-04-09T01:10:55.900Z,6.013489
2023-04-09T01:12:05.613Z,6.02356
2023-04-09T01:13:15.319Z,6.043701
2023-04-09T01:14:22.992Z,6.043701
2023-04-09T01:15:32.684Z,6.02356
2023-04-09T01:16:42.372Z,6.013489
2023-04-09T01:17:49.999Z,6.02356
2023-04-09T01:18:59.661Z,6.043701
2023-04-09T01:20:09.337Z,6.043701
2023-04-09T01:21:18.002Z,6.053772
2023-04-09T01:22:27.686Z,6.053772
2023-04-09T01:23:37.342Z,6.043701
2023-04-09T01:24:47.043Z,6.053772
2023-04-09T01:25:56.709Z,6.02356
2023-04-09T01:27:06.397Z,6.02356
2023-04-09T01:28:16.059Z,5.973206
2023-04-09T01:29:23.735Z,5.993347
2023-04-09T01:30:32.469Z,6.013489
2023-04-09T01:31:42.112Z,6.02356
2023-04-09T01:32:50.767Z,6.013489
2023-04-09T01:34:00.434Z,6.02356
2023-04-09T01:35:08.185Z,6.043701
2023-04-09T01:36:15.875Z,6.053772
2023-04-09T01:37:25.564Z,6.053772
2023-04-09T01:38:34.216Z,6.083984
2023-04-09T01:39:42.885Z,6.083984
2023-04-09T01:40:52.591Z,6.073914
2023-04-09T01:42:01.280Z,6.043701
2023-04-09T01:43:10.940Z,6.053772
2023-04-09T01:44:19.633Z,6.083984
2023-04-09T01:45:27.276Z,6.073914
2023-04-09T01:46:36.941Z,6.053772
2023-04-09T01:47:45.685Z,6.043701
2023-04-09T01:48:54.434Z,6.02356
2023-04-09T01:50:04.023Z,5.993347
2023-04-09T01:51:12.688Z,5.993347
2023-04-09T01:52:22.351Z,5.973206
2023-04-09T01:53:32.029Z,5.942993
2023-04-09T01:54:39.692Z,5.973206
2023-04-09T01:55:48.362Z,5.912781
2023-04-09T01:56:58.030Z,5.892639
2023-04-09T01:58:06.754Z,5.90271
2023-04-09T01:59:16.389Z,5.932922
2023-04-09T02:00:25.069Z,5.973206
2023-04-09T02:01:32.826Z,5.993347
2023-04-09T02:02:42.489Z,6.013489
2023-04-09T02:03:51.296Z,6.02356
2023-04-09T02:04:59.772Z,6.013489
2023-04-09T02:06:09.437Z,5.993347
2023-04-09T02:07:18.075Z,5.993347
2023-04-09T02:08:27.727Z,5.993347
2023-04-09T02:09:38.370Z,5.993347
2023-04-09T02:10:47.129Z,6.013489
2023-04-09T02:11:56.804Z,5.983276
2023-04-09T02:13:04.454Z,5.993347
2023-04-09T02:14:13.108Z,5.993347
2023-04-09T02:15:22.839Z,6.013489
2023-04-09T02:16:32.491Z,5.993347
2023-04-09T02:17:42.187Z,5.983276
2023-04-09T02:18:51.036Z,6.013489
2023-04-09T02:19:58.531Z,5.983276
2023-04-09T02:21:08.197Z,5.983276
2023-04-09T02:22:15.893Z,5.973206
2023-04-09T02:23:25.537Z,5.973206
2023-04-09T02:24:35.202Z,5.973206
2023-04-09T02:25:43.978Z,5.973206
2023-04-09T02:26:53.612Z,5.973206
2023-04-09T02:28:02.274Z,5.983276
2023-04-09T02:29:10.929Z,5.993347
2023-04-09T02:30:21.115Z,5.993347
2023-04-09T02:31:29.785Z,5.973206
2023-04-09T02:32:39.452Z,5.932922
2023-04-09T02:33:49.129Z,5.90271
2023-04-09T02:34:57.831Z,5.942993
2023-04-09T02:36:06.581Z,5.942993
2023-04-09T02:37:16.206Z,5.973206
2023-04-09T02:38:23.857Z,5.973206
2023-04-09T02:39:33.541Z,5.993347
2023-04-09T02:40:42.249Z,6.013489
2023-04-09T02:41:50.902Z,5.993347
2023-04-09T02:43:00.562Z,5.983276
2023-04-09T02:44:08.231Z,5.993347
2023-04-09T02:45:17.917Z,5.993347
2023-04-09T02:46:26.571Z,6.013489
2023-04-09T02:47:35.267Z,6.02356
2023-04-09T02:48:44.930Z,6.02356
2023-04-09T02:49:53.636Z,6.013489
2023-04-09T02:51:03.315Z,5.983276
2023-04-09T02:52:13.023Z,5.973206
2023-04-09T02:53:22.650Z,5.90271
2023-04-09T02:54:32.324Z,5.90271
2023-04-09T02:55:41.085Z,5.90271
2023-04-09T02:56:48.735Z,5.932922
2023-04-09T02:57:58.382Z,5.862427
2023-04-09T02:59:06.071Z,5.872498
2023-04-09T03:00:15.738Z,5.862427
2023-04-09T03:01:25.388Z,5.872498
2023-04-09T03:02:35.152Z,5.90271
2023-04-09T03:03:44.744Z,5.872498
2023-04-09T03:04:53.363Z,5.822144
2023-04-09T03:06:01.097Z,5.751648
2023-04-09T03:07:10.751Z,5.721436
2023-04-09T03:08:18.432Z,5.721436
2023-04-09T03:09:27.141Z,5.711365
2023-04-09T03:10:35.816Z,5.640869
2023-04-09T03:11:43.543Z,5.590515
2023-04-09T03:12:53.189Z,5.540161
2023-04-09T03:14:02.889Z,5.570374
2023-04-09T03:15:11.535Z,5.620728
2023-04-09T03:16:21.243Z,5.640869
2023-04-09T03:17:30.999Z,5.640869
2023-04-09T03:18:40.623Z,5.661011
2023-04-09T03:19:50.303Z,5.681152
2023-04-09T03:20:58.000Z,5.661011
2023-04-09T03:22:07.683Z,5.661011
2023-04-09T03:23:17.320Z,5.691223
2023-04-09T03:24:24.992Z,5.65094
2023-04-09T03:25:34.686Z,5.610657
2023-04-09T03:26:44.384Z,5.620728
2023-04-09T03:27:53.077Z,5.610657
2023-04-09T03:29:02.732Z,5.570374
2023-04-09T03:30:11.394Z,5.53009
2023-04-09T03:31:21.095Z,5.560303
2023-04-09T03:32:29.742Z,5.459595
2023-04-09T03:33:37.357Z,5.439453
2023-04-09T03:34:47.034Z,5.389099
2023-04-09T03:35:54.726Z,5.409241
2023-04-09T03:37:03.395Z,5.379028
2023-04-09T03:38:13.187Z,5.348816
2023-04-09T03:39:20.996Z,5.328674
2023-04-09T03:40:30.935Z,5.328674
2023-04-09T03:41:40.586Z,5.318604
2023-04-09T03:42:48.269Z,5.258179
2023-04-09T03:43:57.945Z,5.248108
2023-04-09T03:45:07.661Z,5.197754
2023-04-09T03:46:17.375Z,5.167542
2023-04-09T03:47:27.080Z,5.107117
2023-04-09T03:48:35.725Z,5.066833
2023-04-09T03:49:45.370Z,5.016479
2023-04-09T03:50:55.038Z,4.935913
2023-04-09T03:52:04.746Z,4.865417
2023-04-09T03:53:12.477Z,4.835205
2023-04-09T03:54:22.117Z,4.754639
2023-04-09T03:55:31.835Z,4.704285
2023-04-09T03:56:41.539Z,4.664001
2023-04-09T03:57:51.202Z,4.633789
2023-04-09T03:58:59.884Z,4.583435
2023-04-09T04:00:08.539Z,4.563293
2023-04-09T04:01:18.326Z,4.553223
2023-04-09T04:02:27.360Z,4.533081
2023-04-09T04:03:36.865Z,4.492798
2023-04-09T04:04:46.550Z,4.502869
2023-04-09T04:05:54.045Z,4.482727
2023-04-09T04:07:03.831Z,4.482727
2023-04-09T04:08:12.466Z,4.492798
2023-04-09T04:09:20.143Z,4.492798
2023-04-09T04:10:29.817Z,4.452515
2023-04-09T04:11:37.508Z,4.402161
2023-04-09T04:12:47.452Z,4.422302
2023-04-09T04:13:57.102Z,4.482727
2023-04-09T04:15:04.805Z,4.482727
2023-04-09T04:16:14.496Z,4.482727
2023-04-09T04:17:23.148Z,4.452515
2023-04-09T04:18:32.797Z,4.422302
2023-04-09T04:19:42.511Z,4.422302
2023-04-09T04:20:51.144Z,4.371948
2023-04-09T04:21:59.816Z,4.412231
2023-04-09T04:23:09.476Z,4.442444
2023-04-09T04:24:18.152Z,4.442444
2023-04-09T04:25:26.807Z,4.452515
2023-04-09T04:26:35.476Z,4.452515
2023-04-09T04:27:43.181Z,4.502869
2023-04-09T04:28:53.099Z,4.52301
2023-04-09T04:30:02.511Z,4.533081
2023-04-09T04:31:10.157Z,4.533081
2023-04-09T04:32:19.838Z,4.533081
2023-04-09T04:33:28.500Z,4.563293
2023-04-09T04:34:37.164Z,4.603577
2023-04-09T04:35:46.861Z,4.603577
2023-04-09T04:36:55.481Z,4.593506
2023-04-09T04:38:05.190Z,4.583435
2023-04-09T04:39:14.891Z,4.593506
2023-04-09T04:40:22.556Z,4.593506
2023-04-09T04:41:32.282Z,4.553223
2023-04-09T04:42:40.977Z,4.593506
2023-04-09T04:43:50.659Z,4.633789
2023-04-09T04:45:00.368Z,4.563293
2023-04-09T04:46:10.039Z,4.563293
2023-04-09T04:47:18.666Z,4.583435
2023-04-09T04:48:28.323Z,4.623718
2023-04-09T04:49:37.099Z,4.593506
2023-04-09T04:50:46.769Z,4.52301
2023-04-09T04:51:55.432Z,4.502869
2023-04-09T04:53:03.163Z,4.533081
2023-04-09T04:54:12.810Z,4.563293
2023-04-09T04:55:21.492Z,4.623718
2023-04-09T04:56:30.153Z,4.633789
2023-04-09T04:57:39.833Z,4.714355
2023-04-09T04:58:47.488Z,4.714355
2023-04-09T04:59:57.136Z,4.744568
2023-04-09T05:01:05.903Z,4.744568
2023-04-09T05:02:15.599Z,4.714355
2023-04-09T05:03:27.431Z,4.734497
2023-04-09T05:04:35.202Z,4.714355
2023-04-09T05:05:44.848Z,4.674072
2023-04-09T05:06:54.525Z,4.664001
2023-04-09T05:08:03.193Z,4.563293
2023-04-09T05:09:12.861Z,4.492798
2023-04-09T05:10:22.495Z,4.492798
2023-04-09T05:11:32.150Z,4.412231
2023-04-09T05:12:41.842Z,4.371948
2023-04-09T05:13:50.561Z,4.412231
2023-04-09T05:15:00.242Z,4.422302
2023-04-09T05:16:09.972Z,4.412231
2023-04-09T05:17:19.688Z,4.402161
2023-04-09T05:18:29.364Z,4.402161
2023-04-09T05:19:38.227Z,4.321594
2023-04-09T05:20:45.893Z,4.321594
2023-04-09T05:21:55.557Z,4.351807
2023-04-09T05:23:04.240Z,4.422302
2023-04-09T05:24:12.874Z,4.442444
2023-04-09T05:25:22.558Z,4.502869
2023-04-09T05:26:31.206Z,4.563293
2023-04-09T05:27:40.869Z,4.533081
2023-04-09T05:28:49.690Z,4.533081
2023-04-09T05:29:58.543Z,4.563293
2023-04-09T05:31:06.949Z,4.633789
2023-04-09T05:32:15.633Z,4.674072
2023-04-09T05:33:24.320Z,4.754639
2023-04-09T05:34:33.982Z,4.855347
2023-04-09T05:35:42.682Z,4.925842
2023-04-09T05:36:52.295Z,4.986267
2023-04-09T05:38:01.971Z,5.066833
2023-04-09T05:39:10.653Z,5.137329
2023-04-09T05:40:21.501Z,5.207825
2023-04-09T05:41:31.163Z,5.248108
2023-04-09T05:42:39.836Z,5.288391
2023-04-09T05:43:49.601Z,5.328674
2023-04-09T05:44:57.270Z,5.288391
2023-04-09T05:46:06.921Z,5.197754
2023-04-09T05:47:16.563Z,5.227966
2023-04-09T05:48:25.277Z,5.318604
2023-04-09T05:49:34.922Z,5.348816
2023-04-09T05:50:53.680Z,5.429382
2023-04-09T05:51:53.201Z,5.429382
2023-04-09T05:53:02.867Z,5.389099
2023-04-09T05:54:11.565Z,5.348816
2023-04-09T05:55:21.222Z,5.288391
2023-04-09T05:56:28.892Z,5.197754
2023-04-09T05:57:36.581Z,5.197754
2023-04-09T05:58:46.259Z,5.197754
2023-04-09T05:59:53.919Z,5.107117
2023-04-09T06:01:02.610Z,5.046692
2023-04-09T06:02:12.488Z,5.036621
2023-04-09T06:03:20.266Z,5.036621
2023-04-09T06:04:30.003Z,5.066833
2023-04-09T06:05:39.714Z,5.1474
2023-04-09T06:06:48.357Z,5.197754
2023-04-09T06:07:58.033Z,5.429382
2023-04-09T06:09:06.744Z,5.509949
2023-04-09T06:10:15.439Z,5.590515
2023-04-09T06:11:25.086Z,5.681152
2023-04-09T06:12:32.740Z,5.721436
2023-04-09T06:13:42.396Z,5.862427
2023-04-09T06:14:52.052Z,5.993347
2023-04-09T06:16:00.731Z,6.114197
2023-04-09T06:17:10.404Z,6.235046
2023-04-09T06:18:20.069Z,6.325684
2023-04-09T06:19:28.735Z,6.355896
2023-04-09T06:20:38.407Z,6.305542
2023-04-09T06:21:48.046Z,6.27533
2023-04-09T06:22:57.724Z,6.325684
2023-04-09T06:24:06.443Z,6.355896
2023-04-09T06:25:16.132Z,6.325684
2023-04-09T06:26:25.759Z,6.305542
2023-04-09T06:27:35.461Z,6.27533
2023-04-09T06:28:43.132Z,6.265259
2023-04-09T06:29:52.784Z,6.265259
2023-04-09T06:31:02.473Z,6.325684
2023-04-09T06:32:11.105Z,6.325684
2023-04-09T06:33:21.866Z,6.235046
2023-04-09T06:34:31.640Z,6.305542
2023-04-09T06:35:40.284Z,6.255188
2023-04-09T06:36:50.070Z,6.265259
2023-04-09T06:37:59.795Z,6.386108
2023-04-09T06:39:09.485Z,6.476746
2023-04-09T06:40:19.201Z,6.597595
2023-04-09T06:41:27.796Z,6.668091
2023-04-09T06:42:37.509Z,6.768799
2023-04-09T06:43:47.198Z,6.819153
2023-04-09T06:44:55.872Z,6.718445
2023-04-09T06:46:05.714Z,6.688232
2023-04-09T06:47:13.403Z,6.748657
2023-04-09T06:48:23.119Z,6.879578
2023-04-09T06:49:31.824Z,7.03064
2023-04-09T06:50:39.455Z,7.131348
2023-04-09T06:51:49.116Z,7.201843
2023-04-09T06:52:56.878Z,7.28241
2023-04-09T06:54:05.552Z,7.473755
2023-04-09T06:55:15.208Z,7.6651
2023-04-09T06:56:22.947Z,7.866516
2023-04-09T06:57:32.742Z,8.027649
2023-04-09T06:58:42.544Z,8.229065
2023-04-09T06:59:51.273Z,8.329773
2023-04-09T07:01:00.927Z,8.450623
2023-04-09T07:02:09.683Z,8.531189
2023-04-09T07:03:18.399Z,8.490906
2023-04-09T07:04:27.994Z,8.702393
2023-04-09T07:05:36.597Z,8.944092
2023-04-09T07:06:46.250Z,9.095154
2023-04-09T07:07:55.916Z,9.226074
2023-04-09T07:09:05.619Z,9.356995
2023-04-09T07:10:15.262Z,9.356995
2023-04-09T07:11:23.902Z,9.538269
2023-04-09T07:12:32.575Z,9.759827
2023-04-09T07:13:42.257Z,9.920959
2023-04-09T07:14:51.925Z,9.991455
2023-04-09T07:16:01.636Z,10.041809
2023-04-09T07:17:10.212Z,9.991455
2023-04-09T07:18:17.886Z,10.05188
2023-04-09T07:19:27.578Z,10.192871
2023-04-09T07:20:36.251Z,10.263367
2023-04-09T07:21:44.883Z,10.333862
2023-04-09T07:22:54.539Z,10.535278
2023-04-09T07:24:02.202Z,10.706482
2023-04-09T07:25:10.908Z,10.756836
2023-04-09T07:26:20.548Z,10.494995
2023-04-09T07:27:29.211Z,10.585632
2023-04-09T07:28:38.865Z,10.706482
2023-04-09T07:29:47.638Z,10.917969
2023-04-09T07:30:56.227Z,11.099243
2023-04-09T07:32:05.897Z,10.988464
2023-04-09T07:33:14.571Z,11.149597
2023-04-09T07:34:24.321Z,11.109314
2023-04-09T07:35:34.200Z,10.917969
2023-04-09T07:36:43.082Z,10.756836
2023-04-09T07:37:52.633Z,10.736694
2023-04-09T07:39:01.315Z,10.746765
2023-04-09T07:40:10.995Z,10.917969
2023-04-09T07:41:19.703Z,11.038818
2023-04-09T07:42:29.314Z,10.998535
2023-04-09T07:43:38.951Z,10.92804
2023-04-09T07:44:47.724Z,10.917969
2023-04-09T07:45:56.392Z,10.746765
2023-04-09T07:47:06.149Z,10.776978
2023-04-09T07:48:15.815Z,10.837402
2023-04-09T07:49:24.459Z,10.746765
2023-04-09T07:50:34.264Z,10.787048
2023-04-09T07:51:42.936Z,10.746765
2023-04-09T07:52:52.584Z,10.494995
2023-04-09T07:54:02.285Z,10.484924
2023-04-09T07:55:09.941Z,10.505066
2023-04-09T07:56:19.608Z,10.787048
2023-04-09T07:57:28.272Z,11.079102
2023-04-09T07:58:36.898Z,11.471863
2023-04-09T07:59:46.557Z,11.804199
2023-04-09T08:00:54.231Z,11.985474
2023-04-09T08:02:04.059Z,12.247314
2023-04-09T08:03:14.713Z,12.650146
2023-04-09T08:04:23.351Z,12.9422
2023-04-09T08:05:32.875Z,13.012695
2023-04-09T08:06:41.514Z,13.123474
2023-04-09T08:07:51.162Z,13.274536
2023-04-09T08:09:00.906Z,13.455811
2023-04-09T08:10:08.644Z,13.717651
2023-04-09T08:11:18.309Z,13.969421
2023-04-09T08:12:26.967Z,14.100342
2023-04-09T08:13:35.674Z,14.251404
2023-04-09T08:14:45.332Z,14.352112
2023-04-09T08:15:54.014Z,14.281616
2023-04-09T08:17:02.727Z,14.140625
2023-04-09T08:18:12.359Z,14.120483
2023-04-09T08:19:21.037Z,13.969421
2023-04-09T08:20:30.735Z,13.999634
2023-04-09T08:21:39.442Z,13.898926
2023-04-09T08:22:47.092Z,14.049988
2023-04-09T08:23:56.767Z,14.140625
2023-04-09T08:25:06.428Z,13.566589
2023-04-09T08:26:14.141Z,13.163757
2023-04-09T08:27:23.786Z,13.274536
2023-04-09T08:28:32.443Z,13.69751
2023-04-09T08:29:41.145Z,13.959351
2023-04-09T08:30:50.821Z,13.667297
2023-04-09T08:32:00.732Z,13.526306
2023-04-09T08:33:11.583Z,13.556519
2023-04-09T08:34:21.298Z,13.616943
2023-04-09T08:35:31.018Z,13.768005
2023-04-09T08:36:40.847Z,13.596802
2023-04-09T08:37:49.414Z,13.526306
2023-04-09T08:38:58.100Z,13.536377
2023-04-09T08:40:07.792Z,13.496094
2023-04-09T08:41:15.613Z,13.435669
2023-04-09T08:42:24.243Z,13.314819
2023-04-09T08:43:47.152Z,13.133545
2023-04-09T08:44:44.589Z,12.730713
2023-04-09T08:45:54.266Z,12.82135
2023-04-09T08:47:02.901Z,12.781067
2023-04-09T08:48:10.652Z,12.982483
2023-04-09T08:49:20.233Z,13.224182
2023-04-09T08:50:29.936Z,13.365173
2023-04-09T08:51:38.604Z,13.536377
2023-04-09T08:52:48.378Z,13.284607
2023-04-09T08:53:57.038Z,13.254395
2023-04-09T08:55:06.689Z,13.334961
2023-04-09T08:56:15.352Z,13.113403
2023-04-09T08:57:24.020Z,13.042908
2023-04-09T08:58:32.662Z,12.952271
2023-04-09T08:59:42.366Z,12.82135
2023-04-09T09:00:51.072Z,12.680359
2023-04-09T09:02:00.866Z,12.599792
2023-04-09T09:03:10.470Z,12.609863
2023-04-09T09:04:19.063Z,12.670288
2023-04-09T09:05:26.685Z,12.680359
2023-04-09T09:06:34.384Z,12.499084
2023-04-09T09:07:44.038Z,12.287598
2023-04-09T09:08:52.816Z,12.207031
2023-04-09T09:10:02.452Z,12.055969
2023-04-09T09:11:12.037Z,11.94519
2023-04-09T09:12:19.688Z,11.784058
2023-04-09T09:13:29.316Z,11.834412
2023-04-09T09:14:38.017Z,11.965332
2023-04-09T09:15:46.693Z,12.176819
2023-04-09T09:16:56.458Z,12.388306
2023-04-09T09:18:06.037Z,12.599792
2023-04-09T09:19:15.713Z,12.760925
2023-04-09T09:20:25.400Z,12.911987
2023-04-09T09:21:34.124Z,13.032837
2023-04-09T09:22:43.785Z,13.274536
2023-04-09T09:23:53.477Z,13.385315
2023-04-09T09:25:02.128Z,13.385315
2023-04-09T09:26:11.926Z,13.365173
2023-04-09T09:27:20.573Z,13.334961
2023-04-09T09:28:29.220Z,13.163757
2023-04-09T09:29:38.871Z,13.375244
2023-04-09T09:30:47.940Z,13.536377
2023-04-09T09:31:56.238Z,13.667297
2023-04-09T09:33:04.892Z,13.788147
2023-04-09T09:34:14.512Z,13.969421
2023-04-09T09:35:23.194Z,13.959351
2023-04-09T09:36:30.867Z,13.94928
2023-04-09T09:37:39.530Z,13.898926
2023-04-09T09:38:49.179Z,13.888855
2023-04-09T09:39:58.838Z,13.677368
2023-04-09T09:41:08.486Z,13.788147
2023-04-09T09:42:19.234Z,13.969421
2023-04-09T09:43:27.884Z,13.365173
2023-04-09T09:44:37.590Z,13.465881
2023-04-09T09:45:46.265Z,13.808289
2023-04-09T09:46:54.909Z,13.919067
2023-04-09T09:48:04.635Z,13.717651
2023-04-09T09:49:12.273Z,13.667297
2023-04-09T09:50:21.897Z,13.788147
2023-04-09T09:51:30.622Z,13.969421
2023-04-09T09:52:38.289Z,14.180908
2023-04-09T09:53:49.630Z,14.58374
2023-04-09T09:54:56.655Z,14.734802
2023-04-09T09:56:05.371Z,14.936218
2023-04-09T09:57:15.065Z,14.936218
2023-04-09T09:58:22.714Z,14.906006
2023-04-09T09:59:32.442Z,14.95636
2023-04-09T10:00:43.097Z,15.057068
2023-04-09T10:01:51.895Z,15.147705
2023-04-09T10:03:01.558Z,15.248413
2023-04-09T10:04:10.347Z,15.248413
2023-04-09T10:05:19.089Z,15.167847
2023-04-09T10:06:28.722Z,15.036926
2023-04-09T10:07:36.397Z,14.734802
2023-04-09T10:08:47.073Z,14.603882
2023-04-09T10:09:55.737Z,14.593811
2023-04-09T10:11:05.633Z,14.45282
2023-04-09T10:12:15.386Z,14.261475
2023-04-09T10:13:24.051Z,14.301758
2023-04-09T10:14:32.721Z,14.432678
2023-04-09T10:15:42.405Z,14.231262
2023-04-09T10:16:50.105Z,14.442749
2023-04-09T10:17:59.858Z,14.543457
2023-04-09T10:19:08.421Z,14.45282
2023-04-09T10:20:18.078Z,14.261475
2023-04-09T10:21:27.775Z,14.180908
2023-04-09T10:22:37.443Z,14.140625
2023-04-09T10:23:46.178Z,14.281616
2023-04-09T10:24:55.840Z,14.291687
2023-04-09T10:26:04.497Z,14.372253
2023-04-09T10:27:15.879Z,14.543457
2023-04-09T10:28:22.923Z,14.553528
2023-04-09T10:29:31.770Z,13.868713
2023-04-09T10:30:41.437Z,13.788147
2023-04-09T10:31:51.124Z,13.858643
2023-04-09T10:32:59.814Z,13.919067
2023-04-09T10:34:10.784Z,13.999634
2023-04-09T10:35:19.093Z,13.153687
2023-04-09T10:36:26.746Z,12.499084
2023-04-09T10:37:36.450Z,12.801208
2023-04-09T10:38:46.082Z,13.19397
2023-04-09T10:39:54.810Z,13.486023
2023-04-09T10:41:04.394Z,13.737793
2023-04-09T10:42:12.388Z,13.919067
2023-04-09T10:43:22.092Z,14.110413
2023-04-09T10:44:31.753Z,14.251404
2023-04-09T10:45:41.385Z,14.140625
2023-04-09T10:46:51.128Z,14.100342
2023-04-09T10:47:59.756Z,13.778076
2023-04-09T10:49:09.396Z,13.163757
2023-04-09T10:50:19.072Z,13.314819
2023-04-09T10:51:28.781Z,13.647156
2023-04-09T10:52:38.439Z,13.898926
2023-04-09T10:53:47.125Z,13.989563
2023-04-09T10:54:55.758Z,14.110413
2023-04-09T10:56:05.403Z,14.20105
2023-04-09T10:57:14.096Z,14.150696
2023-04-09T10:58:23.735Z,14.110413
2023-04-09T10:59:33.404Z,13.898926
2023-04-09T11:00:42.131Z,13.858643
2023-04-09T11:01:51.958Z,13.94928
2023-04-09T11:03:01.859Z,13.959351
2023-04-09T11:04:10.696Z,13.848572
2023-04-09T11:05:19.073Z,13.898926
2023-04-09T11:06:27.720Z,13.94928
2023-04-09T11:07:36.384Z,13.768005
2023-04-09T11:08:46.058Z,13.647156
2023-04-09T11:09:54.753Z,13.556519
2023-04-09T11:11:04.424Z,13.627014
2023-04-09T11:12:13.123Z,13.82843
2023-04-09T11:13:20.866Z,13.919067
2023-04-09T11:14:30.542Z,13.989563
2023-04-09T11:15:39.235Z,14.261475
2023-04-09T11:16:49.043Z,14.593811
2023-04-09T11:17:58.733Z,14.775085
2023-04-09T11:19:07.382Z,14.815369
2023-04-09T11:20:16.710Z,14.805298
2023-04-09T11:21:28.666Z,14.785156
2023-04-09T11:22:38.352Z,14.845581
2023-04-09T11:23:48.042Z,14.694519
2023-04-09T11:24:57.728Z,14.603882
2023-04-09T11:26:06.344Z,14.593811
2023-04-09T11:27:16.086Z,14.533386
2023-04-09T11:28:25.849Z,14.593811
2023-04-09T11:29:35.489Z,14.724731
2023-04-09T11:30:44.145Z,14.724731
2023-04-09T11:31:53.857Z,14.442749
2023-04-09T11:33:03.588Z,14.291687
2023-04-09T11:34:11.150Z,14.0802
2023-04-09T11:35:20.850Z,14.049988
2023-04-09T11:36:31.445Z,14.100342
2023-04-09T11:37:40.201Z,14.150696
2023-04-09T11:38:49.928Z,13.929138
2023-04-09T11:39:58.521Z,13.868713
2023-04-09T11:41:07.201Z,13.848572
2023-04-09T11:42:16.955Z,13.808289
2023-04-09T11:43:25.702Z,13.747864
2023-04-09T11:44:34.649Z,13.747864
2023-04-09T11:45:44.540Z,13.858643
2023-04-09T11:46:52.261Z,13.94928
2023-04-09T11:48:01.932Z,13.808289
2023-04-09T11:49:09.621Z,13.94928
2023-04-09T11:50:18.298Z,13.898926
2023-04-09T11:51:27.942Z,13.667297
2023-04-09T11:52:35.728Z,13.516235
2023-04-09T11:53:44.363Z,13.455811
2023-04-09T11:54:54.111Z,13.435669
2023-04-09T11:56:01.782Z,13.566589
2023-04-09T11:57:11.449Z,13.385315
2023-04-09T11:58:21.125Z,13.516235
2023-04-09T11:59:29.767Z,13.486023
2023-04-09T12:00:39.412Z,13.133545
2023-04-09T12:01:47.181Z,13.083191
2023-04-09T12:02:55.991Z,13.254395
2023-04-09T12:04:05.700Z,13.334961
2023-04-09T12:05:13.212Z,13.465881
2023-04-09T12:06:22.868Z,13.526306
2023-04-09T12:07:32.537Z,13.647156
2023-04-09T12:08:43.203Z,13.717651
2023-04-09T12:09:52.879Z,13.707581
2023-04-09T12:11:00.527Z,13.616943
2023-04-09T12:12:09.170Z,13.415527
2023-04-09T12:13:18.868Z,13.455811
2023-04-09T12:14:27.519Z,13.486023
2023-04-09T12:15:37.210Z,13.556519
2023-04-09T12:16:45.966Z,13.586731
2023-04-09T12:17:53.636Z,13.405457
2023-04-09T12:19:03.313Z,13.375244
2023-04-09T12:20:10.919Z,12.458801
2023-04-09T12:21:19.381Z,12.146606
2023-04-09T12:22:28.254Z,11.733704
2023-04-09T12:23:37.935Z,11.864624
2023-04-09T12:24:45.596Z,12.146606
2023-04-09T12:25:55.246Z,12.499084
2023-04-09T12:27:02.906Z,12.791138
2023-04-09T12:28:12.595Z,12.801208
2023-04-09T12:29:22.302Z,12.750854
2023-04-09T12:30:30.909Z,12.982483
2023-04-09T12:31:40.618Z,13.19397
2023-04-09T12:32:50.249Z,13.375244
2023-04-09T12:33:59.939Z,13.496094
2023-04-09T12:35:09.597Z,13.69751
2023-04-09T12:36:17.250Z,14.231262
2023-04-09T12:37:25.899Z,14.694519
2023-04-09T12:38:35.590Z,15.238342
2023-04-09T12:39:44.230Z,15.973511
2023-04-09T12:40:53.895Z,15.429688
2023-04-09T12:42:02.591Z,15.621033
2023-04-09T12:43:11.320Z,15.651245
2023-04-09T12:44:20.982Z,15.621033
2023-04-09T12:45:29.650Z,16.386414
2023-04-09T12:46:38.272Z,16.255493
2023-04-09T12:47:47.943Z,16.013794
2023-04-09T12:48:55.621Z,15.490112
2023-04-09T12:50:05.281Z,15.20813
2023-04-09T12:51:14.944Z,15.147705
2023-04-09T12:52:23.610Z,15.20813
2023-04-09T12:53:33.288Z,15.137634
2023-04-09T12:54:41.931Z,15.036926
2023-04-09T12:55:50.564Z,14.664307
2023-04-09T12:57:00.220Z,14.603882
2023-04-09T12:58:07.860Z,14.533386
2023-04-09T12:59:17.537Z,14.553528
2023-04-09T13:00:26.200Z,14.442749
2023-04-09T13:01:34.922Z,14.352112
2023-04-09T13:02:44.647Z,14.33197
2023-04-09T13:03:53.634Z,14.251404
2023-04-09T13:05:01.808Z,14.180908
2023-04-09T13:06:11.463Z,14.170837
2023-04-09T13:07:20.131Z,14.0802
2023-04-09T13:08:29.876Z,13.888855
2023-04-09T13:09:39.527Z,13.707581
2023-04-09T13:10:47.193Z,13.737793
2023-04-09T13:11:56.849Z,13.858643
2023-04-09T13:13:05.495Z,13.929138
2023-04-09T13:14:14.162Z,13.919067
2023-04-09T13:15:23.816Z,14.150696
2023-04-09T13:16:31.487Z,14.694519
2023-04-09T13:17:41.212Z,15.721741
2023-04-09T13:18:51.029Z,14.916077
2023-04-09T13:19:58.481Z,14.855652
2023-04-09T13:21:08.147Z,14.906006
2023-04-09T13:22:16.795Z,14.815369